»·PEaware :: N1128 KGEG-KSEA

N1128 :: KGEG-KSEA

FLIGHT INFORMATION

Flight Status: Arrived
Operator: Privately registered:
United States
More flights under this callsign
Pilot: Siddique N. (20419)
Aircraft: ECLIPSE 500
(EA50)
More flights by this aircraft type
Origin: KGEG Spokane Intl
United States
Destination: KSEA Seattle-Tacoma Intl
United States
More flights between these airports :: More routes between these airports
Route: +GEG6 TEMPL GLASR1
File this flight plan on PilotEdge
Remarks:
Altitude:
(Current/Filed)
16,000ft
Speed:
(Current/Filed)
250kts
Departed: 03-Nov-20 11:21 AM
Arrived: 03-Nov-20 12:13 PM
Distance/Time
Traveled:
194nm/0:52
Distance/Time
To Go:
Arrived

Flight Plot

Page will automatically refresh every two minutes.

Flight plan parsing failed; only flown route is shown


Map Options




Map Legend


Flown Route
Filed Route
Departure Airport
Arrival Airport
Navaid (VOR, NDB)
Fix

Horizontal Profiles

Position Reports

Time Latitude Longitude Heading Altitude Ground
Speed
03-Nov-20 11:10 47.623400 -117.542164 0 2365ft 0kts
03-Nov-20 11:11 47.623400 -117.542164 0 2365ft 0kts
03-Nov-20 11:12 47.623400 -117.542164 0 2365ft 0kts
03-Nov-20 11:13 47.623400 -117.542164 0 2365ft 0kts
03-Nov-20 11:14 47.623400 -117.542164 0 2365ft 0kts
03-Nov-20 11:15 47.623400 -117.542164 0 2365ft 0kts
03-Nov-20 11:16 47.623241 -117.541598 116 2365ft 13kts
03-Nov-20 11:17 47.623592 -117.533808 44 2355ft 30kts
03-Nov-20 11:18 47.630266 -117.523768 43 2339ft 34kts
03-Nov-20 11:19 47.631898 -117.519539 131 2324ft 0kts
03-Nov-20 11:20 47.624605 -117.528242 225 2350ft 122kts
03-Nov-20 11:21 47.592276 -117.573667 224 4726ft 182kts
03-Nov-20 11:22 47.554624 -117.624674 229 7977ft 187kts
03-Nov-20 11:23 47.562729 -117.698319 283 10955ft 194kts
03-Nov-20 11:24 47.576900 -117.775708 277 13591ft 199kts
03-Nov-20 11:25 47.587597 -117.857113 277 15719ft 217kts
03-Nov-20 11:26 47.598814 -117.962950 274 15763ft 293kts
03-Nov-20 11:27 47.609495 -118.086150 274 15759ft 305kts
03-Nov-20 11:28 47.620225 -118.208172 274 15758ft 293kts
03-Nov-20 11:29 47.634380 -118.326760 277 15757ft 290kts
03-Nov-20 11:30 47.646766 -118.444084 275 15757ft 289kts
03-Nov-20 11:31 47.656742 -118.562457 275 15756ft 289kts
03-Nov-20 11:32 47.669228 -118.680413 275 15761ft 288kts
03-Nov-20 11:33 47.678866 -118.798653 273 15761ft 288kts
03-Nov-20 11:34 47.688349 -118.917542 273 15707ft 296kts
03-Nov-20 11:35 47.698231 -119.043234 273 15705ft 311kts
03-Nov-20 11:36 47.708274 -119.170521 273 15704ft 309kts
03-Nov-20 11:37 47.718423 -119.297605 273 15703ft 309kts
03-Nov-20 11:38 47.728654 -119.424218 273 15703ft 308kts
03-Nov-20 11:40 47.739628 -119.549090 275 15701ft 295kts
03-Nov-20 11:41 47.750164 -119.671609 272 15707ft 302kts
03-Nov-20 11:42 47.758912 -119.797756 272 15707ft 309kts
03-Nov-20 11:43 47.767730 -119.922844 272 15733ft 300kts
03-Nov-20 11:44 47.776573 -120.045593 272 15788ft 296kts
03-Nov-20 11:45 47.786008 -120.167308 275 15787ft 296kts
03-Nov-20 11:46 47.797887 -120.288639 275 15786ft 296kts
03-Nov-20 11:47 47.806070 -120.410244 272 15785ft 295kts
03-Nov-20 11:48 47.812954 -120.532016 272 15784ft 295kts
03-Nov-20 11:49 47.820479 -120.653952 272 15784ft 295kts
03-Nov-20 11:50 47.828782 -120.778329 272 15273ft 303kts
03-Nov-20 11:51 47.836504 -120.898325 272 13737ft 279kts
03-Nov-20 11:52 47.844668 -121.010523 273 12454ft 274kts
03-Nov-20 11:53 47.853619 -121.126718 273 12029ft 275kts
03-Nov-20 11:54 47.860789 -121.237136 273 12029ft 263kts
03-Nov-20 11:55 47.867628 -121.340498 273 12027ft 234kts
03-Nov-20 11:56 47.874299 -121.440996 273 11980ft 257kts
03-Nov-20 11:56 47.880028 -121.530659 273 11974ft 265kts
03-Nov-20 11:58 47.886373 -121.657916 269 11972ft 240kts
03-Nov-20 11:58 47.876563 -121.728631 222 11596ft 225kts
03-Nov-20 12:00 47.821874 -121.804488 251 9799ft 240kts
03-Nov-20 12:00 47.807152 -121.881843 254 8021ft 220kts
03-Nov-20 12:02 47.788715 -121.978662 255 7522ft 226kts
03-Nov-20 12:02 47.776054 -122.050149 255 6263ft 208kts
03-Nov-20 12:03 47.761797 -122.130628 255 5200ft 208kts
03-Nov-20 12:04 47.747052 -122.212590 255 3977ft 183kts
03-Nov-20 12:05 47.722080 -122.267786 205 3977ft 173kts
03-Nov-20 12:06 47.673540 -122.297479 205 3272ft 203kts
03-Nov-20 12:07 47.623547 -122.312034 190 2974ft 166kts
03-Nov-20 12:08 47.577450 -122.314721 186 2729ft 164kts
03-Nov-20 12:09 47.531873 -122.315723 186 1733ft 171kts
03-Nov-20 12:10 47.487262 -122.316910 184 854ft 152kts
03-Nov-20 12:11 47.447645 -122.318006 183 359ft 104kts
03-Nov-20 12:12 47.441916 -122.316554 148 351ft 19kts

Navigation Log

Ident Type
Flight plan parsing failed, navigation log unavailable